createdAt,value
2018-11-02T00:01:02.728Z,98.60
2018-11-02T00:03:38.013Z,98.30
2018-11-02T00:06:12.691Z,98.40
2018-11-02T00:08:46.825Z,98.20
2018-11-02T00:11:22.053Z,98.20
2018-11-02T00:13:56.446Z,97.70
2018-11-02T00:16:31.534Z,97.80
2018-11-02T00:19:06.696Z,97.60
2018-11-02T00:21:38.754Z,97.80
2018-11-02T00:24:10.966Z,97.80
2018-11-02T00:26:46.883Z,97.80
2018-11-02T00:29:19.793Z,97.90
2018-11-02T00:31:54.211Z,97.70
2018-11-02T00:34:28.829Z,97.70
2018-11-02T00:37:05.164Z,97.60
2018-11-02T00:39:41.246Z,97.60
2018-11-02T00:42:15.454Z,97.60
2018-11-02T00:44:49.960Z,97.50
2018-11-02T00:47:24.527Z,97.60
2018-11-02T00:49:58.947Z,97.60
2018-11-02T00:52:33.440Z,97.50
2018-11-02T00:55:09.458Z,97.60
2018-11-02T00:57:46.352Z,97.50
2018-11-02T01:00:21.551Z,97.60
2018-11-02T01:02:56.131Z,97.60
2018-11-02T01:05:30.528Z,97.60
2018-11-02T01:08:09.071Z,97.60
2018-11-02T01:10:43.260Z,97.60
2018-11-02T01:13:21.367Z,97.60
2018-11-02T01:15:59.672Z,97.60
2018-11-02T01:18:38.198Z,97.80
2018-11-02T01:21:16.294Z,97.50
2018-11-02T01:23:50.776Z,97.70
2018-11-02T01:26:26.300Z,97.80
2018-11-02T01:29:00.690Z,97.70
2018-11-02T01:31:38.968Z,97.60
2018-11-02T01:34:15.474Z,97.60
2018-11-02T01:36:50.834Z,97.60
2018-11-02T01:39:25.068Z,97.60
2018-11-02T01:42:01.476Z,97.60
2018-11-02T01:44:35.938Z,97.40
2018-11-02T01:47:08.127Z,97.10
2018-11-02T01:49:48.629Z,97.10
2018-11-02T01:52:22.852Z,97.00
2018-11-02T01:54:57.203Z,97.10
2018-11-02T01:57:33.726Z,97.10
2018-11-02T02:00:08.187Z,97.10
2018-11-02T02:02:42.469Z,97.20
2018-11-02T02:05:17.149Z,97.40
2018-11-02T02:07:52.079Z,97.50
2018-11-02T02:10:26.464Z,97.60
2018-11-02T02:13:02.325Z,97.80
2018-11-02T02:15:36.509Z,97.70
2018-11-02T02:18:11.046Z,97.60
2018-11-02T02:20:45.366Z,97.70
2018-11-02T02:23:20.781Z,97.70
2018-11-02T02:25:55.182Z,97.80
2018-11-02T02:28:29.795Z,98.00
2018-11-02T02:31:04.108Z,98.00
2018-11-02T02:33:39.065Z,98.10
2018-11-02T02:36:13.774Z,98.20
2018-11-02T02:41:22.106Z,98.20
2018-11-02T02:44:00.890Z,98.60
2018-11-02T02:46:39.626Z,99.00
2018-11-02T02:49:18.280Z,99.40
2018-11-02T02:51:54.920Z,99.40
2018-11-02T02:54:29.291Z,99.50
2018-11-02T02:57:03.625Z,99.40
2018-11-02T02:59:38.300Z,99.40
2018-11-02T03:02:18.002Z,99.40
2018-11-02T03:04:54.378Z,99.50
2018-11-02T03:07:29.981Z,99.50
2018-11-02T03:10:04.787Z,99.50
2018-11-02T03:12:39.011Z,99.50
2018-11-02T03:15:14.101Z,99.40
2018-11-02T03:17:50.238Z,99.40
2018-11-02T03:20:25.675Z,99.30
2018-11-02T03:22:59.856Z,99.00
2018-11-02T03:25:34.296Z,99.10
2018-11-02T03:28:08.658Z,99.10
2018-11-02T03:30:42.939Z,98.90
2018-11-02T03:33:17.415Z,98.80
2018-11-02T03:35:57.962Z,98.90
2018-11-02T03:38:32.161Z,98.90
2018-11-02T03:41:07.597Z,98.90
2018-11-02T03:43:42.134Z,99.10
2018-11-02T03:46:16.579Z,99.10
2018-11-02T03:48:52.975Z,99.10
2018-11-02T03:51:27.565Z,99.20
2018-11-02T03:54:02.433Z,99.20
2018-11-02T03:56:36.872Z,99.10
2018-11-02T03:59:15.383Z,99.10
2018-11-02T04:01:57.187Z,99.10
2018-11-02T04:04:38.421Z,99.10
2018-11-02T04:07:13.189Z,98.80
2018-11-02T04:09:51.389Z,98.70
2018-11-02T04:12:29.904Z,98.50
2018-11-02T04:15:04.395Z,98.40
2018-11-02T04:17:42.826Z,98.60
2018-11-02T04:20:17.119Z,98.60
2018-11-02T04:22:51.466Z,98.50
2018-11-02T04:25:27.279Z,98.20
2018-11-02T04:28:01.894Z,98.10
2018-11-02T04:30:36.565Z,98.20
2018-11-02T04:33:12.147Z,98.10
2018-11-02T04:35:46.838Z,98.40
2018-11-02T04:38:22.494Z,98.40
2018-11-02T04:41:02.643Z,98.50
2018-11-02T04:43:37.532Z,98.70
2018-11-02T04:46:11.791Z,98.90
2018-11-02T04:48:47.209Z,99.00
2018-11-02T04:51:23.035Z,99.10
2018-11-02T04:53:58.708Z,99.00
2018-11-02T04:56:33.194Z,98.70
2018-11-02T04:59:07.540Z,98.60
2018-11-02T05:01:43.197Z,98.40
2018-11-02T05:04:17.633Z,98.40
2018-11-02T05:06:51.805Z,98.50
2018-11-02T05:09:26.351Z,98.40
2018-11-02T05:12:02.474Z,98.50
2018-11-02T05:14:36.971Z,98.50
2018-11-02T05:17:12.243Z,98.60
2018-11-02T05:19:47.638Z,98.40
2018-11-02T05:22:28.477Z,98.50
2018-11-02T05:25:02.393Z,98.50
2018-11-02T05:27:40.508Z,98.40
2018-11-02T05:30:15.101Z,98.40
2018-11-02T05:32:49.390Z,98.30
2018-11-02T05:35:25.030Z,98.30
2018-11-02T05:37:59.816Z,98.40
2018-11-02T05:40:34.121Z,98.30
2018-11-02T05:43:12.331Z,98.40
2018-11-02T05:45:46.787Z,98.30
2018-11-02T05:48:21.769Z,98.30
2018-11-02T05:50:56.191Z,98.30
2018-11-02T05:53:30.723Z,98.30
2018-11-02T05:56:05.016Z,98.40
2018-11-02T05:58:39.744Z,98.40
2018-11-02T06:01:14.159Z,98.60
2018-11-02T06:03:48.742Z,98.50
2018-11-02T06:06:25.927Z,98.50
2018-11-02T06:09:02.278Z,98.40
2018-11-02T06:11:34.632Z,98.40
2018-11-02T06:14:09.133Z,98.40
2018-11-02T06:16:43.353Z,98.40
2018-11-02T06:19:17.724Z,98.40
2018-11-02T06:21:51.772Z,98.50
2018-11-02T06:24:26.180Z,98.60
2018-11-02T06:27:00.802Z,98.80
2018-11-02T06:29:36.932Z,98.80
2018-11-02T06:32:11.642Z,98.70
2018-11-02T06:34:47.855Z,98.80
2018-11-02T06:37:24.310Z,98.70
2018-11-02T06:40:02.846Z,98.70
2018-11-02T06:42:40.941Z,98.90
2018-11-02T06:45:15.619Z,99.00
2018-11-02T06:47:50.969Z,99.10
2018-11-02T06:50:27.434Z,99.10
2018-11-02T06:53:02.521Z,99.00
2018-11-02T06:55:38.551Z,99.10
2018-11-02T06:58:17.423Z,99.20
2018-11-02T07:00:53.877Z,99.20
2018-11-02T07:03:28.046Z,98.90
2018-11-02T07:06:02.507Z,99.00
2018-11-02T07:08:37.959Z,99.00
2018-11-02T07:11:20.599Z,98.90
2018-11-02T07:13:59.457Z,98.70
2018-11-02T07:16:35.612Z,98.60
2018-11-02T07:19:10.834Z,98.70
2018-11-02T07:21:49.364Z,98.80
2018-11-02T07:24:25.795Z,98.70
2018-11-02T07:27:06.264Z,98.80
2018-11-02T07:29:41.035Z,98.50
2018-11-02T07:32:19.790Z,98.50
2018-11-02T07:34:54.838Z,98.30
2018-11-02T07:37:31.056Z,98.40
2018-11-02T07:42:47.916Z,98.00
2018-11-02T07:45:22.896Z,97.80
2018-11-02T07:47:58.077Z,97.20
2018-11-02T07:50:39.540Z,96.80
2018-11-02T07:53:21.149Z,96.40
2018-11-02T07:55:55.705Z,96.40
2018-11-02T07:58:31.988Z,96.40
2018-11-02T08:01:07.003Z,95.90
2018-11-02T08:03:43.491Z,96.40
2018-11-02T08:06:17.701Z,96.10
2018-11-02T08:08:52.765Z,96.10
2018-11-02T08:11:33.238Z,95.90
2018-11-02T08:14:08.093Z,96.20
2018-11-02T08:16:44.279Z,96.40
2018-11-02T08:19:21.347Z,96.40
2018-11-02T08:22:01.891Z,96.20
2018-11-02T08:24:37.724Z,96.20
2018-11-02T08:27:16.032Z,95.90
2018-11-02T08:29:51.807Z,96.00
2018-11-02T08:32:30.070Z,96.20
2018-11-02T08:35:07.375Z,96.40
2018-11-02T08:37:42.251Z,96.00
2018-11-02T08:40:17.156Z,96.40
2018-11-02T08:42:52.300Z,96.20
2018-11-02T08:45:27.147Z,96.90
2018-11-02T08:48:02.277Z,94.30
2018-11-02T08:50:37.190Z,94.50
2018-11-02T08:53:12.156Z,94.80
2018-11-02T08:55:46.510Z,93.80
2018-11-02T08:58:21.841Z,94.00
2018-11-02T09:00:56.732Z,93.30
2018-11-02T09:03:32.119Z,92.60
2018-11-02T09:06:10.255Z,92.70
2018-11-02T09:08:48.424Z,92.60
2018-11-02T09:11:23.669Z,93.00
2018-11-02T09:13:59.561Z,92.60
2018-11-02T09:16:35.886Z,92.90
2018-11-02T09:19:09.967Z,92.90
2018-11-02T09:21:44.871Z,92.20
2018-11-02T09:24:17.720Z,92.80
2018-11-02T09:26:52.734Z,92.30
2018-11-02T09:29:27.843Z,92.10
2018-11-02T09:32:01.997Z,90.40
2018-11-02T09:34:36.329Z,90.40
2018-11-02T09:37:12.647Z,87.20
2018-11-02T09:39:46.791Z,86.00
2018-11-02T09:42:22.817Z,87.70
2018-11-02T09:44:56.896Z,89.40
2018-11-02T09:47:31.323Z,88.80
2018-11-02T09:50:06.322Z,88.80
2018-11-02T09:52:41.372Z,87.40
2018-11-02T09:55:16.193Z,86.70
2018-11-02T09:57:52.686Z,88.40
2018-11-02T10:00:24.588Z,89.00
2018-11-02T10:03:02.939Z,87.50
2018-11-02T10:05:38.987Z,88.00
2018-11-02T10:08:17.189Z,86.60
2018-11-02T10:10:51.296Z,85.20
2018-11-02T10:13:26.098Z,87.00
2018-11-02T10:16:07.342Z,85.00
2018-11-02T10:18:41.997Z,84.50
2018-11-02T10:21:14.001Z,83.20
2018-11-02T10:23:48.835Z,84.10
2018-11-02T10:26:29.412Z,85.30
2018-11-02T10:29:05.509Z,82.50
2018-11-02T10:31:40.404Z,85.40
2018-11-02T10:34:21.761Z,84.70
2018-11-02T10:36:56.670Z,83.80
2018-11-02T10:39:32.803Z,85.80
2018-11-02T10:42:08.555Z,84.20
2018-11-02T10:44:43.779Z,84.20
2018-11-02T10:47:20.196Z,85.40
2018-11-02T10:49:54.787Z,86.40
2018-11-02T10:52:32.888Z,84.40
2018-11-02T10:55:12.166Z,82.90
2018-11-02T10:57:46.533Z,82.40
2018-11-02T11:00:30.645Z,81.70
2018-11-02T11:03:06.410Z,83.50
2018-11-02T11:05:41.471Z,83.10
2018-11-02T11:08:15.840Z,82.90
2018-11-02T11:10:49.952Z,80.20
2018-11-02T11:13:22.244Z,80.80
2018-11-02T11:15:58.939Z,79.70
2018-11-02T11:18:31.236Z,79.20
2018-11-02T11:21:06.706Z,80.10
2018-11-02T11:23:41.013Z,79.20
2018-11-02T11:26:16.303Z,78.10
2018-11-02T11:28:50.395Z,76.00
2018-11-02T11:31:25.694Z,78.80
2018-11-02T11:34:01.580Z,78.20
2018-11-02T11:36:36.810Z,77.40
2018-11-02T11:39:12.266Z,78.20
2018-11-02T11:41:47.456Z,79.30
2018-11-02T11:44:21.463Z,77.80
2018-11-02T11:47:01.764Z,79.40
2018-11-02T11:49:42.010Z,79.20
2018-11-02T11:52:16.931Z,78.60
2018-11-02T11:54:52.780Z,78.80
2018-11-02T11:57:31.520Z,79.30
2018-11-02T12:00:08.458Z,79.20
2018-11-02T12:02:43.062Z,78.10
2018-11-02T12:05:22.177Z,80.20
2018-11-02T12:07:56.262Z,79.90
2018-11-02T12:10:31.270Z,79.60
2018-11-02T12:13:05.444Z,78.50
2018-11-02T12:15:40.468Z,75.90
2018-11-02T12:18:14.628Z,75.40
2018-11-02T12:20:49.034Z,75.50
2018-11-02T12:23:25.333Z,75.00
2018-11-02T12:25:59.714Z,76.40
2018-11-02T12:28:34.683Z,77.10
2018-11-02T12:31:10.258Z,77.80
2018-11-02T12:33:45.176Z,77.90
2018-11-02T12:36:16.941Z,78.30
2018-11-02T12:38:52.314Z,79.20
2018-11-02T12:41:29.856Z,78.40
2018-11-02T12:44:04.213Z,76.60
2018-11-02T12:46:40.592Z,75.90
2018-11-02T12:49:19.091Z,76.80
2018-11-02T12:52:03.526Z,76.90
2018-11-02T12:54:38.367Z,77.70
2018-11-02T12:57:14.761Z,77.40
2018-11-02T12:59:48.731Z,77.00
2018-11-02T13:02:33.463Z,76.90
2018-11-02T13:10:57.808Z,76.80
2018-11-02T13:13:48.377Z,76.50
2018-11-02T13:23:42.370Z,74.90
2018-11-02T13:44:53.280Z,72.60
2018-11-02T13:47:29.495Z,72.80
2018-11-02T13:50:05.882Z,72.90
2018-11-02T13:52:41.399Z,74.30
2018-11-02T13:55:15.874Z,74.40
2018-11-02T13:57:54.095Z,74.70
2018-11-02T14:00:29.760Z,74.20
2018-11-02T14:03:06.516Z,73.00
2018-11-02T14:05:40.927Z,73.00
2018-11-02T14:08:15.755Z,74.10
2018-11-02T14:10:50.266Z,73.40
2018-11-02T14:13:25.608Z,72.60
2018-11-02T14:16:00.333Z,73.20
2018-11-02T14:18:38.483Z,72.90
2018-11-02T14:21:12.897Z,72.30
2018-11-02T14:23:47.553Z,73.00
2018-11-02T14:26:21.781Z,72.80
2018-11-02T14:28:58.186Z,72.10
2018-11-02T14:31:32.274Z,73.30
2018-11-02T14:34:06.939Z,71.90
2018-11-02T14:36:42.251Z,72.80
2018-11-02T14:39:17.606Z,72.10
2018-11-02T14:41:51.833Z,72.10
2018-11-02T14:44:27.086Z,71.10
2018-11-02T14:47:09.238Z,72.40
2018-11-02T14:49:44.250Z,71.30
2018-11-02T14:52:18.261Z,72.00
2018-11-02T14:54:53.556Z,72.90
2018-11-02T14:57:28.486Z,72.70
2018-11-02T15:00:03.927Z,73.80
2018-11-02T15:02:41.094Z,73.20
2018-11-02T15:07:55.072Z,72.80
2018-11-02T15:10:31.473Z,74.50
2018-11-02T15:13:06.370Z,74.50
2018-11-02T15:15:40.890Z,74.60
2018-11-02T15:18:17.269Z,76.10
2018-11-02T15:20:51.957Z,77.30
2018-11-02T15:23:24.030Z,74.90
2018-11-02T15:25:59.110Z,77.50
2018-11-02T15:28:39.610Z,74.90
2018-11-02T15:31:17.774Z,76.30
2018-11-02T15:33:53.290Z,75.00
2018-11-02T15:36:28.242Z,76.20
2018-11-02T15:39:03.850Z,76.80
2018-11-02T15:41:40.243Z,77.90
2018-11-02T15:44:14.609Z,77.40
2018-11-02T15:46:49.412Z,77.70
2018-11-02T15:49:25.199Z,77.50
2018-11-02T15:51:59.383Z,78.00
2018-11-02T15:54:34.594Z,80.00
2018-11-02T15:57:10.713Z,80.70
2018-11-02T15:59:45.616Z,81.40
2018-11-02T16:02:19.917Z,82.10
2018-11-02T16:04:55.625Z,82.90
2018-11-02T16:07:30.618Z,83.60
2018-11-02T16:10:07.565Z,82.30
2018-11-02T16:12:49.227Z,82.30
2018-11-02T16:15:24.237Z,82.70
2018-11-02T16:18:02.792Z,82.60
2018-11-02T16:20:38.058Z,83.20
2018-11-02T16:23:12.613Z,84.90
2018-11-02T16:25:47.618Z,85.00
2018-11-02T16:28:24.692Z,86.00
2018-11-02T16:31:04.400Z,87.90
2018-11-02T16:33:45.549Z,88.60
2018-11-02T16:36:17.800Z,90.40
2018-11-02T16:38:55.080Z,90.10
2018-11-02T16:41:35.888Z,89.00
2018-11-02T16:44:14.785Z,89.90
2018-11-02T16:46:48.954Z,90.20
2018-11-02T16:49:27.477Z,90.30
2018-11-02T16:52:06.453Z,90.60
2018-11-02T16:54:40.959Z,90.80
2018-11-02T16:57:15.243Z,91.50
2018-11-02T16:59:49.667Z,91.10
2018-11-02T17:02:27.826Z,91.40
2018-11-02T17:05:01.881Z,91.80
2018-11-02T17:07:40.689Z,92.30
2018-11-02T17:10:15.699Z,92.60
2018-11-02T17:12:50.459Z,92.30
2018-11-02T17:15:24.779Z,92.30
2018-11-02T17:18:01.192Z,92.50
2018-11-02T17:20:36.525Z,92.70
2018-11-02T17:23:12.026Z,92.60
2018-11-02T17:25:52.637Z,92.80
2018-11-02T17:28:27.460Z,92.90
2018-11-02T17:31:02.147Z,92.90
2018-11-02T17:33:40.400Z,92.90
2018-11-02T17:36:17.246Z,93.40
2018-11-02T17:38:51.694Z,93.20
2018-11-02T17:41:27.178Z,93.30
2018-11-02T17:44:01.647Z,93.20
2018-11-02T17:46:38.012Z,93.40
2018-11-02T17:49:19.232Z,93.60
2018-11-02T17:52:00.226Z,93.70
2018-11-02T17:54:35.382Z,93.90
2018-11-02T17:57:11.181Z,94.10
2018-11-02T17:59:47.141Z,94.30
2018-11-02T18:02:27.563Z,94.40
2018-11-02T18:05:07.093Z,94.60
2018-11-02T18:07:42.547Z,94.40
2018-11-02T18:10:17.196Z,94.70
2018-11-02T18:12:56.076Z,94.70
2018-11-02T18:15:31.881Z,94.90
2018-11-02T18:18:06.616Z,95.10
2018-11-02T18:20:43.054Z,95.20
2018-11-02T18:23:17.533Z,95.40
2018-11-02T18:25:51.934Z,95.50
2018-11-02T18:28:26.383Z,95.40
2018-11-02T18:31:12.994Z,96.10
2018-11-02T18:53:34.395Z,95.80
2018-11-02T18:56:13.627Z,95.30
2018-11-02T18:59:06.049Z,95.20
2018-11-02T19:01:43.458Z,95.30
2018-11-02T19:04:32.919Z,95.30
2018-11-02T19:07:07.187Z,95.30
2018-11-02T19:09:56.830Z,95.30
2018-11-02T19:12:36.045Z,95.10
2018-11-02T19:15:18.703Z,95.20
2018-11-02T19:17:53.245Z,95.40
2018-11-02T19:20:36.528Z,95.60
2018-11-02T19:23:26.028Z,95.60
2018-11-02T19:40:50.735Z,96.00
2018-11-02T19:50:23.023Z,96.30
2018-11-02T19:58:56.844Z,96.60
2018-11-02T20:10:15.472Z,97.10
2018-11-02T20:15:57.750Z,97.10
2018-11-02T21:35:51.949Z,96.90
2018-11-02T21:38:26.932Z,97.00
2018-11-02T21:41:07.544Z,97.20
2018-11-02T21:43:45.769Z,97.20
2018-11-02T21:46:20.689Z,97.20
2018-11-02T21:48:55.578Z,97.30
2018-11-02T21:51:31.434Z,97.40
2018-11-02T21:54:06.048Z,97.50
2018-11-02T21:56:41.687Z,97.60
2018-11-02T21:59:15.999Z,97.80
2018-11-02T22:01:54.177Z,97.90
2018-11-02T22:04:41.572Z,97.90
2018-11-02T22:07:24.523Z,98.00
2018-11-02T22:10:03.727Z,98.20
2018-11-02T22:12:43.579Z,98.20
2018-11-02T22:15:24.567Z,98.00
2018-11-02T22:18:07.442Z,97.90
2018-11-02T22:20:48.229Z,97.80
2018-11-02T22:23:25.541Z,97.80
2018-11-02T22:26:06.658Z,97.70
2018-11-02T22:28:53.468Z,97.70
2018-11-02T22:31:27.886Z,97.80
2018-11-02T22:34:03.415Z,97.80
2018-11-02T22:36:37.838Z,97.80
2018-11-02T22:39:14.563Z,97.80
2018-11-02T22:41:51.024Z,97.90
2018-11-02T22:44:25.803Z,97.90
2018-11-02T22:47:04.648Z,97.90
2018-11-02T22:49:40.052Z,98.00
2018-11-02T22:52:17.031Z,98.20
2018-11-02T22:55:02.852Z,98.20
2018-11-02T22:57:43.478Z,98.30
2018-11-02T23:03:05.249Z,98.40
2018-11-02T23:05:40.236Z,98.40
2018-11-02T23:08:16.956Z,98.50
2018-11-02T23:10:57.534Z,98.60
2018-11-02T23:13:32.849Z,98.70
2018-11-02T23:16:08.665Z,98.70
2018-11-02T23:18:43.477Z,98.60
2018-11-02T23:21:26.609Z,98.70
2018-11-02T23:24:10.157Z,98.70
2018-11-02T23:27:03.594Z,98.70
2018-11-02T23:29:39.156Z,98.60
2018-11-02T23:32:15.605Z,98.50
2018-11-02T23:37:38.085Z,98.50
2018-11-02T23:40:14.752Z,98.40
2018-11-02T23:42:51.991Z,98.40
2018-11-02T23:45:28.513Z,98.40
2018-11-02T23:48:08.051Z,98.50
2018-11-02T23:50:49.386Z,98.60
2018-11-02T23:53:25.274Z,98.60
2018-11-02T23:56:02.609Z,98.60
2018-11-02T23:58:37.007Z,98.70
